Time;durP1;ratioP1;P1;durP2;ratioP2;P2;SDS_P1;SDS_P2;PMS_P1;PMS_P2;Temp;Humidity;BMP_temperature;BMP_pressure;BME280_temperature;BME280_humidity;BME280_pressure;Samples;Min_cycle;Max_cycle;Signal;HPM_P1;HPM_P2
2022/01/05 00:00:32;;;;;;;16.13;8.45;;;;;;;5.65;65.34;90954.34;2075247;69;20170;-71
2022/01/05 00:02:57;;;;;;;21.73;10.75;;;;;;;5.84;64.82;90951.84;2075309;69;20648;-72
2022/01/05 00:05:23;;;;;;;16.70;9.07;;;;;;;5.92;64.08;90948.06;2074943;69;20156;-70
2022/01/05 00:07:49;;;;;;;13.48;8.35;;;;;;;5.89;64.48;90940.88;2075521;69;20277;-69
2022/01/05 00:10:16;;;;;;;24.30;9.02;;;;;;;5.70;64.90;90931.59;2075386;69;20529;-70
2022/01/05 00:12:42;;;;;;;16.65;9.27;;;;;;;5.84;64.15;90940.69;2075473;69;20275;-70
2022/01/05 00:15:09;;;;;;;20.17;10.02;;;;;;;5.85;64.09;90933.75;2075250;69;20662;-77
2022/01/05 00:17:35;;;;;;;17.02;8.30;;;;;;;5.84;64.08;90943.47;2075075;69;20131;-69
2022/01/05 00:20:03;;;;;;;14.73;8.07;;;;;;;5.75;64.67;90924.88;2075227;69;20152;-68
2022/01/05 00:22:29;;;;;;;12.75;7.97;;;;;;;5.83;64.11;90941.31;2075258;69;20148;-71
2022/01/05 00:24:54;;;;;;;16.05;8.15;;;;;;;5.71;64.40;90949.06;2075223;69;20150;-72
2022/01/05 00:27:20;;;;;;;14.25;8.00;;;;;;;5.78;64.50;90945.25;2075158;69;20164;-72
2022/01/05 00:29:46;;;;;;;18.17;7.97;;;;;;;5.88;64.09;90942.22;2071732;69;20160;-76
2022/01/05 00:32:12;;;;;;;14.27;7.53;;;;;;;5.91;63.44;90929.78;2075331;69;20223;-71
2022/01/05 00:34:37;;;;;;;14.00;8.00;;;;;;;5.65;64.98;90943.91;2075055;69;20242;-74
2022/01/05 00:37:04;;;;;;;13.77;7.10;;;;;;;5.75;65.12;90924.16;2071939;69;20151;-80
2022/01/05 00:39:29;;;;;;;13.02;6.72;;;;;;;5.91;63.95;90935.38;2075124;69;20167;-69
2022/01/05 00:41:55;;;;;;;10.73;6.25;;;;;;;5.79;64.27;90936.25;2075304;69;20152;-68
2022/01/05 00:44:21;;;;;;;13.05;7.28;;;;;;;5.78;64.57;90945.97;2074927;69;20180;-68
2022/01/05 00:46:46;;;;;;;14.32;8.05;;;;;;;5.69;64.96;90943.41;2075086;69;20597;-68
2022/01/05 00:49:13;;;;;;;11.65;6.68;;;;;;;5.37;66.35;90940.41;2075025;69;20166;-68
2022/01/05 00:51:39;;;;;;;15.15;8.73;;;;;;;5.60;65.79;90939.47;2075084;69;20151;-68
2022/01/05 00:54:05;;;;;;;15.32;8.85;;;;;;;5.80;64.54;90939.75;2071631;69;20144;-69
2022/01/05 00:56:31;;;;;;;17.25;9.40;;;;;;;5.60;65.86;90934.63;2074910;69;20148;-68
2022/01/05 00:58:57;;;;;;;15.63;8.65;;;;;;;5.76;64.85;90925.59;2074976;69;20515;-68
2022/01/05 01:01:22;;;;;;;13.18;7.30;;;;;;;5.84;64.61;90934.38;2074884;69;20132;-68
2022/01/05 01:03:48;;;;;;;11.48;5.95;;;;;;;5.90;63.91;90937.47;2074840;69;20201;-69
2022/01/05 01:06:14;;;;;;;13.45;7.30;;;;;;;5.63;64.74;90938.22;2074762;69;20152;-69
2022/01/05 01:08:40;;;;;;;12.02;7.00;;;;;;;5.40;66.43;90941.22;2074886;69;20188;-68
2022/01/05 01:11:06;;;;;;;12.18;7.22;;;;;;;5.59;65.59;90943.63;2075134;69;20170;-68
2022/01/05 01:13:32;;;;;;;17.15;7.65;;;;;;;5.50;66.27;90942.47;2075146;69;20164;-71
2022/01/05 01:15:58;;;;;;;12.20;7.47;;;;;;;5.53;66.22;90946.09;2071599;69;20155;-68
2022/01/05 01:18:24;;;;;;;13.82;7.18;;;;;;;5.56;65.92;90942.78;2075036;69;20148;-71
2022/01/05 01:20:50;;;;;;;11.35;6.65;;;;;;;5.67;65.48;90938.41;2075008;69;20179;-68
2022/01/05 01:23:22;;;;;;;12.75;6.93;;;;;;;5.75;64.36;90944.41;2075030;69;20144;-68
2022/01/05 01:25:49;;;;;;;13.53;6.93;;;;;;;5.55;65.85;90960.88;2074232;69;20709;-68
2022/01/05 01:28:19;;;;;;;12.25;7.05;;;;;;;5.63;65.61;90943.78;2074659;69;20190;-68
2022/01/05 01:30:46;;;;;;;11.65;7.10;;;;;;;5.63;65.96;90943.06;2074636;69;20187;-69
2022/01/05 01:33:12;;;;;;;14.93;7.38;;;;;;;5.43;66.56;90948.38;2075044;69;20132;-69
2022/01/05 01:35:38;;;;;;;13.30;6.95;;;;;;;5.52;66.22;90969.75;2074863;69;20143;-69
2022/01/05 01:38:03;;;;;;;13.05;7.13;;;;;;;5.61;65.97;90955.59;2074887;69;20172;-69
2022/01/05 01:40:29;;;;;;;12.57;6.47;;;;;;;5.65;66.06;90952.28;2075086;69;20132;-69
2022/01/05 01:42:55;;;;;;;10.25;6.35;;;;;;;5.72;65.58;90947.72;2074939;69;20132;-69
2022/01/05 01:45:21;;;;;;;11.98;6.22;;;;;;;5.58;66.00;90953.31;2074904;69;20270;-69
2022/01/05 01:47:47;;;;;;;12.60;6.78;;;;;;;5.51;66.84;90954.38;2071785;69;20645;-69
2022/01/05 01:50:14;;;;;;;11.40;6.30;;;;;;;5.49;66.63;90957.03;2075045;69;20140;-72
2022/01/05 01:52:40;;;;;;;13.23;6.53;;;;;;;5.59;65.46;90955.50;2074997;69;20170;-69
2022/01/05 01:55:06;;;;;;;9.52;6.53;;;;;;;5.60;65.69;90964.59;2074791;69;20148;-69
2022/01/05 01:57:35;;;;;;;11.40;6.45;;;;;;;5.58;66.38;90956.81;2075076;69;20190;-71
2022/01/05 02:00:01;;;;;;;11.80;6.53;;;;;;;5.50;66.49;90950.84;2074874;69;20174;-73
2022/01/05 02:02:26;;;;;;;15.88;7.75;;;;;;;5.48;66.73;90952.81;2074905;69;20168;-70
2022/01/05 02:04:52;;;;;;;14.25;8.00;;;;;;;5.52;66.29;90962.09;2075106;69;20470;-81
2022/01/05 02:07:18;;;;;;;27.45;14.68;;;;;;;5.55;66.10;90960.16;2075119;69;20149;-73
2022/01/05 02:09:44;;;;;;;20.08;10.80;;;;;;;5.57;66.68;90957.47;2074917;69;20164;-71
2022/01/05 02:12:10;;;;;;;15.55;8.75;;;;;;;5.61;66.16;90949.28;2074889;69;20148;-69
2022/01/05 02:14:37;;;;;;;14.85;6.97;;;;;;;5.56;66.68;90953.22;2071389;69;20220;-69
2022/01/05 02:17:10;;;;;;;9.50;5.75;;;;;;;5.72;65.33;90956.09;2070969;69;20148;-70
2022/01/05 02:19:36;;;;;;;7.00;4.78;;;;;;;5.72;65.33;90959.59;2074506;69;20148;-69
2022/01/05 02:22:05;;;;;;;11.13;5.85;;;;;;;5.69;66.28;90960.88;2071589;69;20178;-69
2022/01/05 02:24:31;;;;;;;14.48;6.57;;;;;;;5.70;65.98;90965.09;2074745;69;20635;-69
2022/01/05 02:26:57;;;;;;;10.27;5.63;;;;;;;5.78;66.17;90973.91;2074971;69;20147;-68
2022/01/05 02:29:24;;;;;;;7.85;5.13;;;;;;;5.71;66.07;90972.13;2075115;69;20606;-69
2022/01/05 02:31:50;;;;;;;8.13;5.03;;;;;;;5.85;65.75;90977.69;2074846;69;20231;-76
2022/01/05 02:34:18;;;;;;;8.40;5.18;;;;;;;5.92;65.08;90973.19;2071483;69;20518;-69
2022/01/05 02:36:45;;;;;;;12.10;6.85;;;;;;;5.47;67.57;90985.56;2074760;69;20179;-68
2022/01/05 02:39:11;;;;;;;9.48;5.85;;;;;;;5.64;66.77;90992.72;2074686;69;20549;-73
2022/01/05 02:41:36;;;;;;;10.50;5.35;;;;;;;5.76;66.01;90990.53;2074660;69;20140;-69
2022/01/05 02:44:02;;;;;;;10.50;5.22;;;;;;;5.83;66.46;90986.00;2074731;69;20582;-68
2022/01/05 02:46:28;;;;;;;8.60;5.10;;;;;;;5.81;66.00;90994.97;2074680;69;20175;-68
2022/01/05 02:48:54;;;;;;;7.72;4.68;;;;;;;5.65;66.18;90996.94;2074737;69;20191;-77
2022/01/05 02:51:21;;;;;;;9.23;5.28;;;;;;;5.63;67.33;91010.78;2074570;69;20183;-79
2022/01/05 02:53:47;;;;;;;5.13;2.90;;;;;;;5.78;66.26;90995.50;2070915;69;20166;-71
2022/01/05 02:56:13;;;;;;;4.45;2.60;;;;;;;5.86;67.23;91007.06;2073718;69;20156;-69
2022/01/05 02:58:39;;;;;;;3.92;2.65;;;;;;;6.01;66.47;91016.94;2067687;69;20942;-68
2022/01/05 03:01:06;;;;;;;4.32;2.28;;;;;;;6.14;66.95;91021.03;2074126;69;20201;-70
2022/01/05 03:03:33;;;;;;;3.13;1.90;;;;;;;6.07;67.02;91023.53;2070698;69;20147;-68
2022/01/05 03:05:59;;;;;;;2.85;1.60;;;;;;;6.27;67.05;91034.97;2073978;69;20148;-68
2022/01/05 03:08:25;;;;;;;1.70;1.30;;;;;;;6.22;67.20;91033.34;2070858;69;20132;-67
2022/01/05 03:10:51;;;;;;;1.73;1.10;;;;;;;6.20;68.00;91040.91;2071045;69;20170;-68
2022/01/05 03:13:17;;;;;;;1.70;1.10;;;;;;;6.32;66.97;91047.09;2074643;69;20594;-68
2022/01/05 03:15:42;;;;;;;1.38;1.00;;;;;;;6.29;69.08;91059.53;2074663;69;20158;-68
2022/01/05 03:18:08;;;;;;;1.00;0.85;;;;;;;6.23;69.48;91062.00;2074620;69;20155;-73
2022/01/05 03:20:34;;;;;;;1.58;1.02;;;;;;;6.26;69.83;91071.94;2074615;69;20231;-72
2022/01/05 03:23:03;;;;;;;1.50;1.00;;;;;;;6.11;70.80;91081.69;2074680;69;20175;-71
2022/01/05 03:25:30;;;;;;;0.98;0.90;;;;;;;6.05;70.54;91081.38;2074638;69;20158;-73
2022/01/05 03:27:56;;;;;;;0.80;0.80;;;;;;;6.32;69.19;91091.78;2074600;69;20144;-68
2022/01/05 03:30:25;;;;;;;0.70;0.70;;;;;;;6.30;68.30;91102.88;2073848;69;20160;-68
2022/01/05 03:35:40;;;;;;;1.02;0.88;;;;;;;6.40;69.39;91089.41;2073997;69;20156;-69
2022/01/05 03:38:06;;;;;;;0.77;0.60;;;;;;;6.50;69.29;91117.88;2074554;69;20151;-70
2022/01/05 03:40:34;;;;;;;1.25;0.50;;;;;;;6.45;69.90;91149.03;2074703;69;20219;-72
2022/01/05 03:43:01;;;;;;;0.32;0.30;;;;;;;6.51;69.06;91149.38;2074617;69;20243;-78
2022/01/05 03:45:26;;;;;;;0.32;0.32;;;;;;;6.57;69.06;91139.19;2074846;69;20171;-70
2022/01/05 03:47:52;;;;;;;0.70;0.30;;;;;;;6.51;68.77;91161.25;2074885;69;20243;-70
2022/01/05 03:50:17;;;;;;;1.35;0.50;;;;;;;6.30;69.99;91176.28;2074610;69;20167;-69
2022/01/05 03:52:43;;;;;;;0.95;0.40;;;;;;;6.46;69.17;91175.63;2074770;69;20617;-70
2022/01/05 03:55:09;;;;;;;0.52;0.40;;;;;;;6.45;70.73;91185.38;2075423;69;20132;-80
2022/01/05 03:57:35;;;;;;;0.38;0.30;;;;;;;6.40;69.86;91192.84;2075358;69;20124;-74
2022/01/05 04:00:01;;;;;;;0.40;0.40;;;;;;;6.40;71.30;91209.59;2075428;69;20594;-72
2022/01/05 04:02:27;;;;;;;0.30;0.30;;;;;;;6.24;71.16;91212.28;2075365;69;20156;-71
2022/01/05 04:04:52;;;;;;;0.65;0.40;;;;;;;6.35;71.25;91216.31;2075251;69;20583;-74
2022/01/05 04:07:18;;;;;;;0.95;0.60;;;;;;;6.37;70.63;91219.25;2075721;69;20209;-75
2022/01/05 04:09:45;;;;;;;1.40;0.70;;;;;;;6.17;71.59;91229.34;2072117;69;20636;-70
2022/01/05 04:12:11;;;;;;;1.95;0.68;;;;;;;6.29;71.29;91243.97;2075540;69;20195;-71
2022/01/05 04:14:37;;;;;;;1.00;0.68;;;;;;;6.37;70.05;91238.81;2075300;69;20595;-74
2022/01/05 04:17:04;;;;;;;0.50;0.50;;;;;;;6.31;70.04;91247.56;2075426;69;20140;-70
2022/01/05 04:19:31;;;;;;;0.80;0.75;;;;;;;6.27;70.03;91255.75;2075331;69;20522;-73
2022/01/05 04:21:57;;;;;;;0.32;0.28;;;;;;;5.99;71.58;91259.81;2072121;69;20172;-71
2022/01/05 04:24:23;;;;;;;0.50;0.45;;;;;;;6.22;70.56;91265.25;2075369;69;20598;-72
2022/01/05 04:26:49;;;;;;;0.25;0.25;;;;;;;6.12;71.02;91270.31;2075397;69;20151;-76
2022/01/05 04:29:14;;;;;;;0.30;0.30;;;;;;;6.15;70.91;91271.16;2075398;69;20144;-81
2022/01/05 04:31:40;;;;;;;0.40;0.30;;;;;;;6.19;70.94;91276.97;2072133;69;20154;-72
2022/01/05 04:34:05;;;;;;;0.85;0.57;;;;;;;6.21;70.24;91277.78;2075335;69;20146;-72
2022/01/05 04:36:31;;;;;;;0.35;0.30;;;;;;;6.15;71.04;91276.75;2075286;69;20151;-77
2022/01/05 04:38:57;;;;;;;0.35;0.35;;;;;;;6.18;70.66;91273.41;2075337;69;20140;-70
2022/01/05 04:41:22;;;;;;;0.22;0.22;;;;;;;6.21;71.03;91274.28;2075304;69;20154;-70
2022/01/05 04:43:48;;;;;;;0.55;0.30;;;;;;;6.01;72.41;91288.59;2075479;69;20182;-72
2022/01/05 04:46:13;;;;;;;0.65;0.20;;;;;;;6.06;71.90;91281.16;2075537;69;20146;-72
2022/01/05 04:48:39;;;;;;;2.65;0.28;;;;;;;5.86;72.98;91283.53;2075377;69;20143;-70
2022/01/05 04:51:04;;;;;;;0.40;0.30;;;;;;;6.01;71.65;91294.19;2071866;69;20247;-70
2022/01/05 04:53:30;;;;;;;0.93;0.30;;;;;;;6.03;71.76;91291.50;2075442;69;20232;-77
2022/01/05 04:55:56;;;;;;;2.53;0.40;;;;;;;6.10;70.88;91286.97;2075374;69;20210;-77
2022/01/05 04:58:22;;;;;;;0.28;0.28;;;;;;;6.01;71.32;91293.47;2075449;69;20498;-80
2022/01/05 05:00:48;;;;;;;0.22;0.20;;;;;;;5.96;71.92;91298.09;2075377;69;20628;-79
2022/01/05 05:03:13;;;;;;;0.40;0.35;;;;;;;5.81;71.74;91307.72;2075421;69;20152;-80
2022/01/05 05:05:39;;;;;;;1.75;0.40;;;;;;;5.75;72.58;91306.66;2075109;69;20139;-71
2022/01/05 05:08:05;;;;;;;0.43;0.30;;;;;;;5.83;72.09;91315.50;2075281;69;20238;-76
2022/01/05 05:10:31;;;;;;;0.40;0.25;;;;;;;5.86;71.13;91311.47;2075424;69;20179;-71
2022/01/05 05:12:57;;;;;;;1.38;0.30;;;;;;;5.85;71.79;91315.59;2075272;69;20590;-70
2022/01/05 05:15:22;;;;;;;0.98;0.50;;;;;;;5.79;71.56;91324.38;2075305;69;20135;-71
2022/01/05 05:17:48;;;;;;;0.40;0.30;;;;;;;5.75;71.77;91334.59;2072002;69;20231;-71
2022/01/05 05:20:14;;;;;;;0.93;0.40;;;;;;;5.75;71.38;91334.59;2075204;69;20148;-71
2022/01/05 05:22:39;;;;;;;2.05;0.70;;;;;;;5.70;71.27;91332.91;2075378;69;20140;-78
2022/01/05 05:25:06;;;;;;;0.75;0.60;;;;;;;5.76;70.70;91345.13;2075283;69;20287;-74
2022/01/05 05:27:31;;;;;;;1.52;0.90;;;;;;;5.57;72.43;91337.06;2075286;69;20136;-75
2022/01/05 05:29:57;;;;;;;1.52;0.70;;;;;;;5.74;71.39;91339.44;2075305;69;20144;-77
2022/01/05 05:32:22;;;;;;;0.90;0.52;;;;;;;5.53;72.42;91345.94;2075232;69;20574;-77
2022/01/05 05:34:48;;;;;;;2.58;0.50;;;;;;;5.61;72.30;91337.31;2075159;69;20181;-72
2022/01/05 05:37:16;;;;;;;1.70;0.52;;;;;;;5.62;71.94;91335.97;2075338;69;20148;-82
2022/01/05 05:39:42;;;;;;;0.75;0.40;;;;;;;5.55;72.48;91353.72;2075283;69;20140;-72
2022/01/05 05:42:08;;;;;;;1.02;0.50;;;;;;;5.55;72.44;91348.88;2075292;69;20152;-69
2022/01/05 05:44:34;;;;;;;0.70;0.45;;;;;;;5.50;72.81;91346.47;2075281;69;20180;-70
2022/01/05 05:47:02;;;;;;;1.35;0.30;;;;;;;5.68;71.77;91344.69;2075528;69;20518;-75
2022/01/05 05:49:28;;;;;;;3.22;0.60;;;;;;;5.47;72.25;91342.81;2075032;69;20152;-76
2022/01/05 05:51:53;;;;;;;1.13;0.90;;;;;;;5.43;72.51;91339.78;2075223;69;20168;-70
2022/01/05 05:54:19;;;;;;;3.67;1.05;;;;;;;5.42;73.27;91340.41;2075261;69;20131;-81
2022/01/05 05:56:45;;;;;;;3.90;1.55;;;;;;;5.43;73.19;91341.84;2075241;69;20217;-74
2022/01/05 05:59:10;;;;;;;3.28;1.30;;;;;;;5.51;72.11;91339.53;2071830;69;20255;-75
2022/01/05 06:01:36;;;;;;;2.75;1.50;;;;;;;5.34;72.60;91346.25;2075334;69;20151;-80
2022/01/05 06:04:01;;;;;;;2.13;1.90;;;;;;;4.80;75.25;91348.00;2075091;69;20148;-78
2022/01/05 06:06:28;;;;;;;1.85;1.00;;;;;;;4.90;75.16;91356.22;2075117;69;20168;-76
2022/01/05 06:08:54;;;;;;;2.05;0.95;;;;;;;5.13;74.09;91349.91;2075177;69;20151;-79
2022/01/05 06:11:20;;;;;;;0.30;0.30;;;;;;;5.17;72.97;91355.00;2075209;69;20209;-78
2022/01/05 06:13:45;;;;;;;4.07;1.50;;;;;;;5.10;73.23;91365.09;2075222;69;20167;-69
2022/01/05 06:16:11;;;;;;;3.78;1.73;;;;;;;5.21;73.16;91355.97;2075096;69;20635;-70
2022/01/05 06:18:37;;;;;;;3.13;2.42;;;;;;;5.27;72.82;91359.13;2075191;69;20238;-70
2022/01/05 06:21:03;;;;;;;3.85;2.00;;;;;;;5.13;73.41;91352.69;2075103;69;20140;-74
2022/01/05 06:23:29;;;;;;;3.75;1.40;;;;;;;5.35;72.42;91381.91;2075180;69;20144;-78
2022/01/05 06:25:54;;;;;;;1.73;0.68;;;;;;;5.29;72.49;91381.56;2075165;69;20184;-73
2022/01/05 06:28:20;;;;;;;0.60;0.52;;;;;;;5.35;72.34;91378.38;2075214;69;20583;-70
2022/01/05 06:30:46;;;;;;;0.60;0.60;;;;;;;5.17;73.18;91380.84;2075240;69;20156;-76
2022/01/05 06:33:12;;;;;;;0.73;0.60;;;;;;;5.22;72.05;91374.19;2075128;69;20213;-72
2022/01/05 06:35:38;;;;;;;0.88;0.60;;;;;;;5.28;72.25;91373.81;2075028;69;20164;-75
2022/01/05 06:38:03;;;;;;;0.98;0.60;;;;;;;5.22;72.65;91382.56;2075103;69;20182;-72
2022/01/05 06:40:29;;;;;;;1.20;0.75;;;;;;;5.19;72.71;91383.03;2071797;69;20124;-70
2022/01/05 06:42:55;;;;;;;1.05;0.60;;;;;;;5.16;72.92;91373.81;2075218;69;20152;-74
2022/01/05 06:45:21;;;;;;;1.88;0.70;;;;;;;5.17;73.51;91375.25;2075114;69;20614;-70
2022/01/05 06:47:47;;;;;;;0.90;0.85;;;;;;;5.18;73.25;91375.97;2075161;69;20150;-71
2022/01/05 06:50:12;;;;;;;0.73;0.70;;;;;;;5.05;73.03;91372.50;2075033;69;20171;-77
2022/01/05 06:52:39;;;;;;;0.90;0.85;;;;;;;5.13;72.86;91393.81;2071803;69;20187;-80
2022/01/05 06:55:07;;;;;;;5.45;3.08;;;;;;;5.27;71.30;91373.06;2075187;69;20143;-83
2022/01/05 06:57:32;;;;;;;1.70;1.40;;;;;;;5.09;72.29;91363.63;2075280;69;20179;-80
2022/01/05 06:59:58;;;;;;;2.00;1.80;;;;;;;4.71;73.83;91376.72;2071804;69;20171;-76
2022/01/05 07:02:23;;;;;;;3.45;2.08;;;;;;;4.77;74.81;91374.31;2075253;69;20156;-83
2022/01/05 07:04:49;;;;;;;3.00;2.28;;;;;;;5.09;73.31;91369.94;2075003;69;20162;-75
2022/01/05 07:07:15;;;;;;;3.92;2.70;;;;;;;5.10;73.33;91376.97;2075179;69;20150;-75
2022/01/05 07:09:40;;;;;;;3.80;2.10;;;;;;;5.00;73.86;91381.94;2075205;69;20168;-74
2022/01/05 07:12:06;;;;;;;3.63;1.88;;;;;;;5.08;73.23;91368.47;2075104;69;20155;-74
2022/01/05 07:14:32;;;;;;;2.80;1.70;;;;;;;4.77;73.31;91359.66;2075131;69;20132;-76
2022/01/05 07:16:58;;;;;;;4.78;2.40;;;;;;;4.92;73.64;91364.00;2075094;69;20500;-72
2022/01/05 07:19:23;;;;;;;4.78;4.10;;;;;;;4.84;74.78;91364.25;2075036;69;20325;-77
2022/01/05 07:21:49;;;;;;;3.70;2.70;;;;;;;5.02;74.01;91370.91;2075111;69;20602;-81
2022/01/05 07:24:17;;;;;;;3.67;2.10;;;;;;;5.09;73.12;91372.00;2075090;69;20590;-80
2022/01/05 07:26:44;;;;;;;3.28;2.10;;;;;;;5.02;73.42;91382.06;2075136;69;20173;-71
2022/01/05 07:29:11;;;;;;;3.30;2.13;;;;;;;5.04;73.33;91373.06;2075382;69;20228;-79
2022/01/05 07:31:37;;;;;;;2.95;2.00;;;;;;;5.03;73.54;91377.22;2075596;69;20139;-79
2022/01/05 07:34:03;;;;;;;4.47;2.30;;;;;;;5.16;72.62;91375.88;2075665;69;20232;-75
2022/01/05 07:36:28;;;;;;;4.07;2.97;;;;;;;5.15;72.64;91380.00;2075569;69;20140;-79
2022/01/05 07:38:54;;;;;;;7.63;4.68;;;;;;;5.03;73.99;91380.00;2075580;69;20518;-76
2022/01/05 07:41:20;;;;;;;12.48;7.65;;;;;;;4.70;74.72;91400.34;2075514;69;20187;-76
2022/01/05 07:43:45;;;;;;;15.43;8.93;;;;;;;4.85;74.85;91394.31;2075578;69;20160;-81
2022/01/05 07:46:11;;;;;;;7.25;4.65;;;;;;;5.04;73.69;91389.81;2075487;69;20167;-80
2022/01/05 07:48:36;;;;;;;9.20;6.15;;;;;;;5.13;72.29;91399.38;2075576;69;20671;-72
2022/01/05 07:51:02;;;;;;;13.38;8.95;;;;;;;4.91;73.89;91407.91;2072120;69;20140;-70
2022/01/05 07:53:28;;;;;;;13.35;8.23;;;;;;;5.12;73.55;91417.47;2075439;69;20128;-70
2022/01/05 07:55:53;;;;;;;14.48;7.70;;;;;;;5.14;73.50;91423.19;2075481;69;20159;-72
2022/01/05 07:58:21;;;;;;;9.13;6.07;;;;;;;5.10;73.83;91427.19;2075594;69;20583;-74
2022/01/05 08:00:47;;;;;;;7.30;4.72;;;;;;;5.14;73.90;91420.41;2075568;69;20144;-72
2022/01/05 08:03:12;;;;;;;5.95;4.45;;;;;;;5.20;73.46;91410.31;2075731;69;20146;-78
2022/01/05 08:05:38;;;;;;;11.52;7.75;;;;;;;5.21;73.52;91419.41;2075381;69;20144;-77
2022/01/05 08:08:04;;;;;;;10.27;6.35;;;;;;;5.15;74.08;91421.84;2075404;69;20147;-73
2022/01/05 08:10:29;;;;;;;5.43;3.80;;;;;;;5.12;74.71;91434.22;2075413;69;20609;-72
2022/01/05 08:12:55;;;;;;;3.65;2.55;;;;;;;4.97;75.93;91433.34;2075609;69;20163;-79
2022/01/05 08:15:22;;;;;;;4.07;2.30;;;;;;;5.18;74.93;91435.31;2075478;69;20557;-74
2022/01/05 08:17:47;;;;;;;2.30;1.70;;;;;;;5.27;74.48;91440.03;2075367;69;20156;-73
2022/01/05 08:20:13;;;;;;;3.90;1.60;;;;;;;5.40;73.89;91443.53;2075239;69;20180;-70
2022/01/05 08:22:44;;;;;;;10.57;6.63;;;;;;;5.32;73.37;91438.22;2075395;69;20136;-77
2022/01/05 08:25:13;;;;;;;12.77;7.72;;;;;;;5.33;72.98;91448.03;2075375;69;20212;-77
2022/01/05 08:27:46;;;;;;;7.43;4.00;;;;;;;5.18;73.47;91452.06;2072114;69;20166;-79
2022/01/05 08:30:22;;;;;;;13.00;6.47;;;;;;;5.10;74.69;91449.50;2075437;69;20160;-71
2022/01/05 08:32:49;;;;;;;9.18;5.88;;;;;;;5.25;73.88;91453.84;2075475;69;20227;-70
2022/01/05 08:35:20;;;;;;;11.77;5.70;;;;;;;5.33;73.72;91448.03;2075210;69;20679;-78
2022/01/05 08:37:47;;;;;;;12.65;5.75;;;;;;;5.12;74.68;91448.16;2075394;69;20156;-75
2022/01/05 08:40:16;;;;;;;11.23;6.20;;;;;;;5.29;74.60;91465.25;2075295;69;20159;-72
2022/01/05 08:42:41;;;;;;;12.07;6.50;;;;;;;5.37;74.19;91469.88;2072018;69;20158;-73
2022/01/05 08:45:08;;;;;;;10.13;5.90;;;;;;;5.28;74.49;91461.03;2071971;69;20144;-72
2022/01/05 08:47:33;;;;;;;9.02;5.20;;;;;;;5.45;73.15;91468.31;2075386;69;20171;-70
2022/01/05 08:49:59;;;;;;;7.60;4.43;;;;;;;5.40;74.17;91474.97;2075337;69;20240;-70
2022/01/05 08:52:25;;;;;;;5.47;3.20;;;;;;;5.49;73.13;91476.16;2075415;69;20201;-72
2022/01/05 08:54:51;;;;;;;8.98;3.97;;;;;;;5.44;73.17;91480.78;2071933;69;20533;-71
2022/01/05 08:57:17;;;;;;;10.18;4.75;;;;;;;4.97;76.20;91471.69;2075365;69;20213;-73
2022/01/05 08:59:44;;;;;;;7.43;4.40;;;;;;;5.20;75.69;91476.53;2075453;69;20594;-71
2022/01/05 09:02:15;;;;;;;7.50;5.05;;;;;;;5.28;75.07;91491.00;2075396;69;20140;-78
2022/01/05 09:04:42;;;;;;;8.60;5.75;;;;;;;5.38;74.28;91476.91;2075247;69;20144;-75
2022/01/05 09:07:10;;;;;;;8.60;5.53;;;;;;;5.22;74.82;91488.56;2075377;69;20617;-77
2022/01/05 09:09:36;;;;;;;9.95;4.90;;;;;;;5.35;73.80;91493.53;2075524;69;20183;-77
2022/01/05 09:12:03;;;;;;;14.77;6.32;;;;;;;5.24;74.20;91485.16;2075410;69;20171;-79
2022/01/05 09:14:28;;;;;;;17.17;7.43;;;;;;;5.18;73.41;91491.09;2075445;69;20160;-77
2022/01/05 09:16:54;;;;;;;13.48;8.10;;;;;;;4.97;75.39;91491.19;2075687;69;20533;-77
2022/01/05 09:19:19;;;;;;;12.13;7.82;;;;;;;5.21;74.71;91497.53;2075422;69;20171;-73
2022/01/05 09:21:49;;;;;;;12.98;6.82;;;;;;;5.32;73.55;91499.59;2075467;69;20140;-72
2022/01/05 09:24:16;;;;;;;11.25;7.13;;;;;;;5.35;74.16;91499.09;2075223;69;20147;-72
2022/01/05 09:26:42;;;;;;;11.75;6.95;;;;;;;5.28;73.91;91502.16;2075242;69;20160;-71
2022/01/05 09:29:07;;;;;;;12.50;7.70;;;;;;;5.43;73.52;91490.50;2075203;69;20518;-79
2022/01/05 09:31:33;;;;;;;11.57;7.00;;;;;;;5.45;73.62;91484.31;2076060;69;20132;-81
2022/01/05 09:33:59;;;;;;;5.93;4.45;;;;;;;5.51;73.13;91477.03;2075469;69;20576;-71
2022/01/05 09:36:33;;;;;;;8.07;4.43;;;;;;;5.58;73.43;91487.22;2075073;69;20142;-76
2022/01/05 09:41:56;;;;;;;5.80;3.30;;;;;;;5.66;73.04;91506.50;2075710;69;20559;-74
2022/01/05 09:44:27;;;;;;;6.22;3.83;;;;;;;5.89;72.03;91505.75;2073212;69;20617;-73
2022/01/05 09:47:18;;;;;;;4.82;3.50;;;;;;;5.96;72.16;91506.88;2075579;69;20228;-78
2022/01/05 09:50:03;;;;;;;4.82;3.30;;;;;;;6.00;72.71;91496.66;2075264;69;20140;-73
2022/01/05 09:52:31;;;;;;;7.25;4.25;;;;;;;6.04;72.30;91501.75;2071899;69;20139;-74
2022/01/05 09:54:57;;;;;;;10.90;5.00;;;;;;;5.76;71.83;91498.00;2075093;69;20525;-73
2022/01/05 09:57:23;;;;;;;4.72;3.20;;;;;;;5.70;73.84;91506.75;2075261;69;20606;-74
2022/01/05 09:59:51;;;;;;;8.35;5.03;;;;;;;5.88;73.14;91495.19;2075171;69;20152;-76
2022/01/05 10:02:18;;;;;;;6.43;3.80;;;;;;;6.06;72.81;91482.31;2069115;69;20159;-73
2022/01/05 10:04:46;;;;;;;4.85;2.28;;;;;;;6.00;72.34;91479.91;2075059;69;20305;-71
2022/01/05 10:07:13;;;;;;;6.60;2.80;;;;;;;6.04;72.18;91484.97;2075203;69;20195;-73
2022/01/05 10:09:40;;;;;;;15.35;7.47;;;;;;;6.17;72.07;91481.53;2075205;69;20187;-75
2022/01/05 10:12:07;;;;;;;14.77;6.97;;;;;;;6.31;72.17;91485.13;2075286;69;20586;-72
2022/01/05 10:14:33;;;;;;;10.15;5.28;;;;;;;6.33;70.86;91490.84;2075286;69;20620;-71
2022/01/05 10:17:03;;;;;;;12.93;7.00;;;;;;;6.27;71.08;91495.38;2075169;69;20178;-71
2022/01/05 10:19:28;;;;;;;13.85;6.95;;;;;;;6.18;71.56;91501.81;2075144;69;20581;-73
2022/01/05 10:21:56;;;;;;;12.35;6.40;;;;;;;6.28;71.64;91508.75;2071641;69;20602;-79
2022/01/05 10:24:47;;;;;;;15.27;6.82;;;;;;;6.57;71.04;91507.53;2075016;69;20148;-72
2022/01/05 10:27:19;;;;;;;15.38;7.85;;;;;;;6.56;70.16;91506.81;2071778;69;20166;-83
2022/01/05 10:30:04;;;;;;;16.42;8.10;;;;;;;6.45;70.76;91518.75;2075161;69;20235;-78
2022/01/05 10:32:33;;;;;;;16.10;7.45;;;;;;;6.28;71.82;91508.75;2075234;69;20227;-80
2022/01/05 10:35:03;;;;;;;11.90;7.00;;;;;;;6.43;71.28;91512.34;2074996;69;20148;-82
2022/01/05 10:37:29;;;;;;;11.88;6.88;;;;;;;6.41;71.49;91512.94;2075233;69;20148;-83
2022/01/05 10:40:13;;;;;;;10.23;5.90;;;;;;;6.44;71.33;91511.00;2071741;69;20159;-71
2022/01/05 10:42:40;;;;;;;9.07;5.15;;;;;;;6.71;70.24;91516.72;2075156;69;20621;-82
2022/01/05 10:45:07;;;;;;;10.50;5.38;;;;;;;6.82;69.96;91510.31;2075055;69;20167;-71
2022/01/05 10:47:34;;;;;;;10.90;6.28;;;;;;;6.88;70.11;91510.69;2075540;69;20174;-78
2022/01/05 10:50:00;;;;;;;10.40;5.70;;;;;;;6.77;70.63;91524.72;2075147;69;20606;-74
2022/01/05 10:52:27;;;;;;;9.85;6.10;;;;;;;6.86;70.95;91509.84;2075238;69;20588;-78
2022/01/05 10:54:56;;;;;;;10.00;5.47;;;;;;;6.95;69.95;91500.53;2075110;69;20609;-78
2022/01/05 10:57:22;;;;;;;10.10;6.00;;;;;;;6.52;71.99;91517.03;2075217;69;20171;-76
2022/01/05 10:59:50;;;;;;;11.77;6.90;;;;;;;6.51;72.09;91519.13;2075313;69;20583;-77
2022/01/05 11:02:23;;;;;;;9.32;6.07;;;;;;;6.33;71.95;91523.69;2075017;69;20628;-74
2022/01/05 11:04:53;;;;;;;13.15;6.40;;;;;;;6.34;72.85;91525.84;2075061;69;20151;-74
2022/01/05 11:07:23;;;;;;;9.50;6.50;;;;;;;6.40;72.67;91533.84;2075064;69;20240;-78
2022/01/05 11:09:52;;;;;;;14.00;9.77;;;;;;;6.33;73.63;91523.69;2071784;69;20152;-76
2022/01/05 11:12:18;;;;;;;20.52;10.98;;;;;;;6.42;72.46;91533.97;2075164;69;20574;-77
2022/01/05 11:14:44;;;;;;;26.70;14.27;;;;;;;6.42;72.50;91541.63;2075112;69;20197;-81
2022/01/05 11:17:09;;;;;;;14.75;9.60;;;;;;;6.37;71.73;91540.69;2075033;69;20602;-79
2022/01/05 11:19:39;;;;;;;18.23;9.80;;;;;;;6.22;73.83;91546.78;2074913;69;20162;-73
2022/01/05 11:22:08;;;;;;;15.48;9.25;;;;;;;6.62;72.97;91542.78;2074975;69;20237;-79
2022/01/05 11:24:45;;;;;;;14.68;9.68;;;;;;;6.38;73.14;91547.72;2075021;69;20140;-72
2022/01/05 11:27:14;;;;;;;11.70;8.48;;;;;;;6.78;71.58;91537.34;2074986;69;20136;-72
2022/01/05 11:29:41;;;;;;;14.70;9.23;;;;;;;7.01;70.76;91537.25;2075027;69;20150;-72
2022/01/05 11:32:10;;;;;;;13.15;8.32;;;;;;;7.08;69.61;91535.50;2074997;69;20194;-74
2022/01/05 11:34:36;;;;;;;9.55;6.32;;;;;;;7.08;69.63;91543.91;2074829;69;20167;-73
2022/01/05 11:37:02;;;;;;;8.57;5.28;;;;;;;6.78;69.08;91537.34;2074925;69;20155;-75
2022/01/05 11:39:29;;;;;;;5.10;3.72;;;;;;;6.84;69.29;91543.31;2074933;69;20203;-72
2022/01/05 11:41:56;;;;;;;5.85;3.80;;;;;;;7.07;68.49;91553.66;2074976;69;20147;-72